Stevensville, MT (59870)

9:25 AM MDT on September 02, 2014 (GMT -0600)
Bitterroot Valley | Change Station
CLOSE
Current Station
Personal Weather Station
Location: Victor, MT
Elevation: 3500 ft
Nearby Weather Stations

Elev 3500 ft 46.46 °N, 114.15 °W | Updated 31 seconds ago

Clear
Clear
81.8 °F
Feels Like 81 °F
N
0.0
Wind Variable Wind from SW
Gusts 0.0 mph

Today
High -- | Low -- °F
--% Chance of Precip.
Yesterday
High -- | Low -- °F
Precip. -- in
6:57 AM 8:13 PM
First Quarter, 52% visible
Pressure 29.97 in
Visibility 10.0 miles
Clouds Clear
Heat Index 81 °F
Dew Point 50 °F
Humidity 33%
Rainfall 0.00 in
Snow Depth Not available.
UV 1 out of 12
Pollen 7.10 out of 12
Air Quality Not available.
Flu Activity Not available.
METAR KMSO 021453Z 00000KT 10SM CLR 10/05 A2998 RMK AO2 SLP148 T01000050 58003

More Conditions Fewer Conditions

Pressure 29.97 in
Visibility 10.0 miles
Clouds Clear
Heat Index 81 °F
Dew Point 50 °F
Humidity 33%
Rainfall 0.00 in
Snow Depth Not available.
UV 1 out of 12
Pollen 7.10 out of 12
Air Quality Not available.
Flu Activity Not available.
METAR KMSO 021453Z 00000KT 10SM CLR 10/05 A2998 RMK AO2 SLP148 T01000050 58003

More Conditions Fewer Conditions

10-Day Weather Forecast

Almanac

Astronomy

Sep. 02, 2014 Rise Set
Actual Time 6:57 AM MDT 8:13 PM MDT
Civil Twilight 6:26 AM MDT 8:44 PM MDT
Nautical Twilight 5:48 AM MDT 9:21 PM MDT
Astronomical Twilight 5:08 AM MDT 10:01 PM MDT
Moon 3:11 PM MDT No Moon Set
Length of Visible Light 14h 17m
Length of Day
13h 15m
Tomorrow will be 3m 12s shorter.
First Quarter, 52% of the Moon is Illuminated
Today
First Quarter
Sep 8
Full
Sep 15
Last Quarter
Sep 24
New
Oct 1
First Quarter

Today's Extremes

State Highs State Lows

Community

WunderPhotos

Upload Photos

1,749,690 photos uploaded!

Nearby

Snow Depth

Station Depth Elevation
Daly Creek 0 in 5780 ft
Black Pine 1 in 7210 ft
Combination 0 in 5600 ft
Twelvemile Creek 0 in 5600 ft
Twin Lakes 0 in 6400 ft

Earthquake Activity

City Distance Mag. Time & Date
No recent earthquake activity has been reported nearby.
Minimum magnitude displayed is 2.5.

Coastal Water Temperatures

Place Temperature
No Stations Reporting

Nearby Weather Stations